Time;durP1;ratioP1;P1;durP2;ratioP2;P2;SDS_P1;SDS_P2;PMS_P1;PMS_P2;Temp;Humidity;BMP_temperature;BMP_pressure;BME280_temperature;BME280_humidity;BME280_pressure;Samples;Min_cycle;Max_cycle;Signal;HPM_P1;HPM_P2
2021/05/20 00:01:39;;;;;;;11.40;6.35;;;;;;;14.13;88.28;100262.39;1638199;86;21250;-62
2021/05/20 00:04:05;;;;;;;10.53;6.20;;;;;;;14.12;88.29;100257.46;1638135;86;21551;-60
2021/05/20 00:06:32;;;;;;;8.63;6.20;;;;;;;14.11;87.56;100256.22;1638005;86;21104;-60
2021/05/20 00:08:59;;;;;;;8.33;5.78;;;;;;;14.12;86.95;100257.95;1641921;85;21012;-62
2021/05/20 00:11:27;;;;;;;11.38;6.15;;;;;;;14.12;86.30;100249.88;1614739;87;21117;-63
2021/05/20 00:13:54;;;;;;;7.30;5.95;;;;;;;14.13;85.79;100251.61;1631924;86;21726;-62
2021/05/20 00:16:22;;;;;;;10.80;6.47;;;;;;;14.14;85.44;100245.26;1597050;88;21135;-62
2021/05/20 00:18:49;;;;;;;15.58;6.83;;;;;;;14.17;85.01;100246.42;1608503;87;21652;-61
2021/05/20 00:21:15;;;;;;;10.60;6.87;;;;;;;14.17;84.76;100245.08;1635386;86;21670;-62
2021/05/20 00:23:42;;;;;;;9.20;6.83;;;;;;;14.20;84.35;100248.94;1635173;87;21153;-61
2021/05/20 00:26:12;;;;;;;12.05;7.60;;;;;;;14.23;83.94;100247.41;1663055;84;21998;-61
2021/05/20 00:28:37;;;;;;;10.10;6.80;;;;;;;14.26;83.52;100245.02;1690645;83;21113;-62
2021/05/20 00:31:04;;;;;;;9.25;6.40;;;;;;;14.27;82.86;100248.98;1649530;84;21077;-62
2021/05/20 00:33:30;;;;;;;10.15;6.87;;;;;;;14.29;82.62;100254.27;1644642;87;21122;-61
2021/05/20 00:35:57;;;;;;;12.00;7.58;;;;;;;14.31;82.43;100253.23;1644666;85;21095;-62
2021/05/20 00:38:23;;;;;;;10.50;6.95;;;;;;;14.33;81.96;100253.13;1644690;87;21153;-63
2021/05/20 00:40:50;;;;;;;9.85;7.75;;;;;;;14.32;81.72;100260.36;1639862;86;21669;-62
2021/05/20 00:43:17;;;;;;;12.70;7.35;;;;;;;14.31;81.64;100257.74;1657831;86;21553;-61
2021/05/20 00:45:43;;;;;;;10.38;7.12;;;;;;;14.29;81.71;100263.25;1652402;86;21111;-61
2021/05/20 00:48:10;;;;;;;11.43;7.83;;;;;;;14.28;81.69;100262.86;1664271;84;21588;-62
2021/05/20 00:50:38;;;;;;;9.93;6.65;;;;;;;14.28;81.53;100257.47;1686884;83;22268;-61
2021/05/20 00:53:04;;;;;;;9.20;6.85;;;;;;;14.28;81.53;100252.53;1639253;86;21159;-63
2021/05/20 00:55:33;;;;;;;9.50;7.37;;;;;;;14.29;81.71;100251.58;1687022;83;21031;-63
2021/05/20 00:58:00;;;;;;;11.60;8.20;;;;;;;14.25;81.79;100250.87;1630509;87;21134;-62
2021/05/20 01:00:26;;;;;;;12.90;6.78;;;;;;;14.24;81.83;100245.09;1645401;85;21077;-61
2021/05/20 01:02:53;;;;;;;10.72;7.45;;;;;;;14.24;81.86;100245.59;1663868;84;22023;-62
2021/05/20 01:05:20;;;;;;;9.90;7.28;;;;;;;14.25;81.84;100237.39;1677320;84;21621;-62
2021/05/20 01:07:46;;;;;;;16.30;7.95;;;;;;;14.22;81.92;100223.25;1653942;84;21090;-62
2021/05/20 01:10:14;;;;;;;18.92;8.68;;;;;;;14.18;82.71;100218.05;1654544;85;21169;-62
2021/05/20 01:12:41;;;;;;;19.65;9.70;;;;;;;14.13;83.50;100212.52;1674498;85;21113;-62
2021/05/20 01:15:24;;;;;;;23.60;10.40;;;;;;;14.05;85.11;100214.31;1674423;85;21697;-63
2021/05/20 01:17:56;;;;;;;18.40;12.07;;;;;;;13.96;85.19;100221.10;1671679;85;21191;-64
2021/05/20 01:20:27;;;;;;;24.70;10.10;;;;;;;13.89;85.51;100235.90;1687288;83;21143;-63
2021/05/20 01:23:17;;;;;;;22.25;9.70;;;;;;;13.85;85.48;100234.34;1676628;84;21329;-63
2021/05/20 01:25:48;;;;;;;30.60;10.03;;;;;;;13.83;85.64;100241.64;1690840;83;21106;-61
2021/05/20 01:28:20;;;;;;;42.58;10.05;;;;;;;13.83;85.42;100247.88;1674110;84;21165;-62
2021/05/20 01:30:48;;;;;;;54.00;10.60;;;;;;;13.83;85.15;100248.38;1670554;84;21166;-62
2021/05/20 01:33:14;;;;;;;24.27;9.15;;;;;;;13.82;84.93;100250.19;1667433;84;21437;-61
2021/05/20 01:35:42;;;;;;;22.90;8.68;;;;;;;13.83;84.82;100247.03;1644239;85;21127;-62
2021/05/20 01:38:54;;;;;;;17.27;8.20;;;;;;;13.82;84.67;100246.15;1649023;85;21143;-61
2021/05/20 01:40:53;;;;;;;16.87;8.60;;;;;;;13.83;84.49;100251.08;1684836;84;21178;-63
2021/05/20 01:43:20;;;;;;;21.20;8.83;;;;;;;13.81;84.54;100250.27;1675812;85;21094;-62
2021/05/20 01:45:57;;;;;;;13.38;8.43;;;;;;;13.81;84.82;100257.00;1673659;84;20979;-63
2021/05/20 01:48:15;;;;;;;16.50;8.63;;;;;;;13.79;85.00;100254.88;1661529;85;21098;-61
2021/05/20 01:50:41;;;;;;;15.80;8.18;;;;;;;13.79;85.36;100253.52;1639103;85;21085;-63
2021/05/20 01:53:09;;;;;;;15.85;8.38;;;;;;;13.75;85.95;100245.62;1639308;85;21154;-63
2021/05/20 01:55:36;;;;;;;14.30;8.20;;;;;;;13.72;86.31;100252.53;1687622;83;21532;-62
2021/05/20 01:58:03;;;;;;;17.62;7.92;;;;;;;13.67;86.65;100250.58;1686519;83;21122;-61
2021/05/20 02:00:29;;;;;;;10.10;7.30;;;;;;;13.66;87.11;100239.42;1638784;86;21174;-61
2021/05/20 02:02:56;;;;;;;9.80;7.25;;;;;;;13.62;87.35;100239.20;1682132;84;21142;-61
2021/05/20 02:05:22;;;;;;;12.68;8.55;;;;;;;13.56;87.10;100231.44;1676317;84;21168;-61
2021/05/20 02:07:49;;;;;;;8.98;7.25;;;;;;;13.52;86.92;100235.27;1651639;85;21189;-61
2021/05/20 02:10:15;;;;;;;12.78;8.33;;;;;;;13.49;87.27;100235.44;1686952;84;21091;-61
2021/05/20 02:12:41;;;;;;;11.18;8.25;;;;;;;13.44;87.49;100232.53;1686227;84;21221;-62
2021/05/20 02:15:11;;;;;;;12.13;7.97;;;;;;;13.43;87.61;100242.92;1686672;84;21103;-61
2021/05/20 02:17:38;;;;;;;12.68;7.95;;;;;;;13.43;87.69;100232.14;1687256;83;21046;-61
2021/05/20 02:20:07;;;;;;;11.57;7.92;;;;;;;13.43;87.87;100233.95;1629285;86;21149;-61
2021/05/20 02:22:34;;;;;;;14.05;8.23;;;;;;;13.42;87.74;100230.37;1654607;85;21084;-61
2021/05/20 02:25:05;;;;;;;14.20;8.20;;;;;;;13.41;87.76;100233.14;1645785;85;21118;-62
2021/05/20 02:27:35;;;;;;;14.20;8.73;;;;;;;13.39;87.62;100227.86;1662476;83;21177;-62
2021/05/20 02:30:02;;;;;;;11.25;7.30;;;;;;;13.39;87.61;100221.59;1619111;87;21166;-61
2021/05/20 02:32:28;;;;;;;10.28;7.50;;;;;;;13.39;87.45;100209.01;1640797;85;21159;-61
2021/05/20 02:34:55;;;;;;;12.00;8.48;;;;;;;13.41;87.26;100204.87;1621229;86;21495;-61
2021/05/20 02:37:21;;;;;;;11.93;8.03;;;;;;;13.40;87.07;100213.44;1644893;86;21130;-61
2021/05/20 02:39:48;;;;;;;10.75;7.33;;;;;;;13.38;87.05;100212.66;1666403;84;21158;-61
2021/05/20 02:42:14;;;;;;;10.45;7.70;;;;;;;13.38;86.77;100218.05;1645559;87;21198;-62
2021/05/20 02:44:41;;;;;;;13.10;7.58;;;;;;;13.36;86.56;100203.77;1645116;87;22249;-61
2021/05/20 02:47:08;;;;;;;13.68;7.85;;;;;;;13.35;86.43;100208.76;1657357;85;21141;-61
2021/05/20 02:49:35;;;;;;;14.43;8.78;;;;;;;13.33;86.44;100201.25;1674286;84;21100;-62
2021/05/20 02:52:01;;;;;;;18.80;11.15;;;;;;;13.30;86.67;100192.00;1674387;84;21025;-61
2021/05/20 02:54:28;;;;;;;17.70;11.03;;;;;;;13.27;87.38;100186.79;1673771;84;22116;-61
2021/05/20 02:56:54;;;;;;;31.70;10.45;;;;;;;13.23;87.72;100182.54;1646713;85;21199;-61
2021/05/20 02:59:21;;;;;;;22.85;10.65;;;;;;;13.22;87.93;100182.14;1647072;85;21120;-61
2021/05/20 03:01:48;;;;;;;21.12;10.82;;;;;;;13.20;88.02;100181.36;1649865;85;21124;-62
2021/05/20 03:04:15;;;;;;;18.30;10.93;;;;;;;13.21;88.15;100180.41;1650134;86;21136;-61
2021/05/20 03:06:42;;;;;;;24.10;9.55;;;;;;;13.21;88.23;100180.41;1626078;86;21154;-61
2021/05/20 03:09:10;;;;;;;17.37;10.03;;;;;;;13.25;88.28;100175.24;1623540;86;21035;-62
2021/05/20 03:11:38;;;;;;;32.05;9.15;;;;;;;13.30;88.27;100169.12;1648770;86;21029;-62
2021/05/20 03:14:05;;;;;;;27.17;9.85;;;;;;;13.37;88.48;100165.12;1650666;85;21001;-62
2021/05/20 03:16:32;;;;;;;37.63;9.65;;;;;;;13.44;88.39;100161.64;1649350;85;21144;-61
2021/05/20 03:19:00;;;;;;;28.62;9.63;;;;;;;13.48;88.47;100164.55;1649775;86;21825;-63
2021/05/20 03:21:27;;;;;;;50.17;10.68;;;;;;;13.50;88.31;100159.97;1678231;83;21604;-61
2021/05/20 03:23:54;;;;;;;61.33;10.70;;;;;;;13.51;88.60;100160.82;1680226;83;21175;-63
2021/05/20 03:26:21;;;;;;;43.87;10.58;;;;;;;13.54;89.03;100171.41;1638175;85;21099;-61
2021/05/20 03:28:47;;;;;;;32.53;9.60;;;;;;;13.56;89.10;100169.50;1619794;85;21130;-63
2021/05/20 03:31:14;;;;;;;36.03;9.20;;;;;;;13.61;88.90;100179.56;1663228;84;21177;-63
2021/05/20 03:33:41;;;;;;;27.37;9.13;;;;;;;13.68;88.27;100182.28;1651865;85;21802;-63
2021/05/20 03:36:08;;;;;;;18.98;9.15;;;;;;;13.78;87.55;100183.09;1670042;85;21100;-63
2021/05/20 03:38:35;;;;;;;17.45;8.58;;;;;;;13.86;87.25;100191.62;1686102;83;21648;-63
2021/05/20 03:41:03;;;;;;;20.90;9.75;;;;;;;13.96;86.35;100204.94;1638964;86;21119;-63
2021/05/20 03:43:36;;;;;;;17.67;9.15;;;;;;;14.06;85.52;100196.33;1686230;84;21465;-62
2021/05/20 03:46:03;;;;;;;26.00;9.88;;;;;;;14.12;84.94;100198.66;1623468;87;21136;-62
2021/05/20 03:48:30;;;;;;;23.47;9.50;;;;;;;14.23;84.42;100194.83;1646002;85;21090;-63
2021/05/20 03:50:58;;;;;;;14.38;8.15;;;;;;;14.36;83.79;100193.62;1643316;85;21162;-62
2021/05/20 03:53:29;;;;;;;14.68;9.35;;;;;;;14.55;83.14;100199.25;1643727;87;21079;-62
2021/05/20 03:55:54;;;;;;;15.93;9.03;;;;;;;14.72;82.06;100206.37;1685995;83;21679;-62
2021/05/20 03:58:20;;;;;;;20.65;9.63;;;;;;;14.88;80.86;100204.45;1638518;87;21107;-62
2021/05/20 04:00:46;;;;;;;15.23;10.55;;;;;;;15.02;80.11;100195.98;1685425;83;21085;-61
2021/05/20 04:03:27;;;;;;;17.87;9.20;;;;;;;15.12;79.49;100191.73;1663170;84;21144;-66
2021/05/20 04:05:59;;;;;;;18.35;9.75;;;;;;;15.20;78.89;100194.45;1662339;83;21635;-61
2021/05/20 04:08:26;;;;;;;16.00;8.93;;;;;;;15.22;78.07;100189.81;1645120;85;21642;-62
2021/05/20 04:10:53;;;;;;;14.35;8.93;;;;;;;15.25;77.81;100181.52;1646030;87;21655;-62
2021/05/20 04:13:39;;;;;;;14.53;9.10;;;;;;;15.25;77.38;100185.56;1646339;85;21543;-61
2021/05/20 04:16:07;;;;;;;14.43;9.85;;;;;;;15.24;77.32;100175.73;1662402;84;27880;-61
2021/05/20 04:18:34;;;;;;;18.23;9.93;;;;;;;15.23;77.55;100179.40;1686428;84;21111;-62
2021/05/20 04:21:01;;;;;;;18.17;9.65;;;;;;;15.23;77.82;100172.64;1619180;87;21719;-61
2021/05/20 04:23:28;;;;;;;15.63;9.15;;;;;;;15.24;77.93;100175.73;1660043;85;21457;-63
2021/05/20 04:25:55;;;;;;;14.93;9.03;;;;;;;15.23;77.98;100172.15;1648553;84;21607;-63
2021/05/20 04:28:21;;;;;;;15.25;9.05;;;;;;;15.17;78.18;100172.55;1633957;85;22272;-63
2021/05/20 04:30:48;;;;;;;15.05;9.55;;;;;;;15.12;78.58;100167.43;1664701;84;21150;-63
2021/05/20 04:33:15;;;;;;;13.40;9.05;;;;;;;15.10;79.08;100172.06;1673250;85;21678;-63
2021/05/20 04:35:42;;;;;;;13.90;8.68;;;;;;;15.07;79.05;100168.21;1690224;84;21536;-62
2021/05/20 04:38:09;;;;;;;13.25;8.88;;;;;;;15.03;79.02;100163.98;1705280;83;21105;-61
2021/05/20 04:40:37;;;;;;;12.35;8.73;;;;;;;15.00;78.74;100165.52;1696847;83;21706;-61
2021/05/20 04:43:04;;;;;;;13.98;8.53;;;;;;;14.96;78.64;100169.39;1704412;82;21630;-61
2021/05/20 04:45:31;;;;;;;10.15;8.30;;;;;;;14.94;78.77;100174.02;1697550;83;21813;-61
2021/05/20 04:47:58;;;;;;;14.15;8.38;;;;;;;14.94;78.89;100180.77;1680186;83;21190;-61
2021/05/20 04:50:25;;;;;;;9.23;7.37;;;;;;;14.90;79.26;100188.17;1680105;84;21038;-61
2021/05/20 04:52:51;;;;;;;13.98;7.22;;;;;;;14.89;79.51;100191.34;1680276;84;21399;-63
2021/05/20 04:55:18;;;;;;;13.53;8.03;;;;;;;14.90;79.55;100190.38;1685191;83;21078;-63
2021/05/20 04:57:45;;;;;;;11.33;8.30;;;;;;;14.89;79.91;100185.94;1708888;82;21157;-62
2021/05/20 05:00:13;;;;;;;13.40;6.95;;;;;;;14.90;80.21;100182.27;1700247;83;21134;-62
2021/05/20 05:02:39;;;;;;;10.55;6.92;;;;;;;14.89;79.84;100173.80;1694673;82;21485;-61
2021/05/20 05:05:07;;;;;;;16.25;7.33;;;;;;;14.87;79.78;100168.12;1686876;83;21150;-62
2021/05/20 05:07:34;;;;;;;10.38;6.83;;;;;;;14.82;79.88;100169.75;1681027;85;21117;-62
2021/05/20 05:10:02;;;;;;;9.45;6.40;;;;;;;14.75;80.66;100180.55;1686230;83;21145;-61
2021/05/20 05:12:29;;;;;;;7.17;5.45;;;;;;;14.66;81.54;100189.16;1702969;82;21358;-63
2021/05/20 05:14:57;;;;;;;7.87;6.00;;;;;;;14.54;82.12;100206.50;1698978;83;21620;-63
2021/05/20 05:17:26;;;;;;;12.40;6.53;;;;;;;14.46;82.70;100204.26;1709029;82;21137;-63
2021/05/20 05:19:52;;;;;;;10.60;6.75;;;;;;;14.42;82.92;100209.92;1669954;84;21637;-64
2021/05/20 05:22:19;;;;;;;8.13;5.92;;;;;;;14.37;83.22;100214.27;1679072;84;21189;-62
2021/05/20 05:24:45;;;;;;;10.18;6.00;;;;;;;14.35;83.24;100228.78;1688477;82;20998;-64
2021/05/20 05:27:12;;;;;;;9.60;6.17;;;;;;;14.35;83.14;100240.92;1709376;82;21654;-63
2021/05/20 05:29:39;;;;;;;9.13;6.12;;;;;;;14.33;83.24;100232.44;1679191;82;21620;-62
2021/05/20 05:32:07;;;;;;;8.58;6.03;;;;;;;14.33;83.43;100232.44;1666940;85;21219;-63
2021/05/20 05:34:34;;;;;;;9.70;6.42;;;;;;;14.37;84.38;100237.65;1667070;83;21162;-63
2021/05/20 05:37:01;;;;;;;11.80;6.00;;;;;;;14.35;84.23;100242.27;1675720;84;21129;-63
2021/05/20 05:39:28;;;;;;;15.72;6.53;;;;;;;14.32;85.44;100237.45;1657167;85;21151;-63
2021/05/20 05:41:54;;;;;;;10.15;6.97;;;;;;;14.28;86.54;100229.16;1679395;83;21121;-63
2021/05/20 05:44:21;;;;;;;11.08;6.97;;;;;;;14.19;87.19;100229.67;1670916;85;21167;-64
2021/05/20 05:46:49;;;;;;;13.90;8.20;;;;;;;14.14;88.06;100233.13;1673673;83;21165;-64
2021/05/20 05:49:18;;;;;;;11.65;7.90;;;;;;;14.15;89.93;100241.14;1658213;85;21119;-62
2021/05/20 05:51:50;;;;;;;14.40;7.55;;;;;;;14.15;90.07;100237.56;1613642;87;21182;-62
2021/05/20 05:54:15;;;;;;;15.75;9.70;;;;;;;14.15;91.78;100236.21;1649233;84;21136;-61
2021/05/20 05:56:41;;;;;;;15.65;9.18;;;;;;;14.14;92.24;100241.22;1660121;83;21555;-63
2021/05/20 05:59:10;;;;;;;16.97;11.28;;;;;;;14.16;92.91;100232.55;1649412;85;21194;-64
2021/05/20 06:01:39;;;;;;;17.82;10.88;;;;;;;14.17;93.60;100232.48;1646052;85;21158;-64
2021/05/20 06:04:08;;;;;;;23.83;10.98;;;;;;;14.20;94.52;100235.45;1646413;85;21116;-63
2021/05/20 06:06:36;;;;;;;18.50;11.03;;;;;;;14.22;95.03;100232.19;1653953;85;21104;-63
2021/05/20 06:09:05;;;;;;;15.72;11.28;;;;;;;14.24;95.58;100241.05;1653772;85;21063;-64
2021/05/20 06:11:35;;;;;;;16.77;10.18;;;;;;;14.26;95.87;100245.02;1648011;85;21066;-64
2021/05/20 06:14:05;;;;;;;12.88;9.20;;;;;;;14.24;94.67;100242.40;1648901;85;21451;-63
2021/05/20 06:16:35;;;;;;;33.58;23.50;;;;;;;14.20;93.93;100234.11;1649945;85;21142;-64
2021/05/20 06:19:03;;;;;;;23.42;17.27;;;;;;;14.16;93.34;100237.95;1649806;85;21784;-63
2021/05/20 06:21:30;;;;;;;16.97;12.45;;;;;;;14.15;92.75;100241.14;1645318;85;21126;-62
2021/05/20 06:23:57;;;;;;;32.38;19.80;;;;;;;14.14;92.73;100239.86;1648154;85;21896;-63
2021/05/20 06:26:25;;;;;;;30.08;20.75;;;;;;;14.11;93.21;100244.09;1652731;85;21157;-63
2021/05/20 06:28:52;;;;;;;34.53;21.15;;;;;;;14.09;93.45;100239.27;1652003;85;21079;-63
2021/05/20 06:31:23;;;;;;;26.40;17.10;;;;;;;14.08;93.16;100238.39;1648843;85;21138;-61
2021/05/20 06:33:50;;;;;;;27.58;14.10;;;;;;;14.11;92.80;100240.05;1652265;85;22061;-62
2021/05/20 06:36:17;;;;;;;18.70;13.53;;;;;;;14.09;93.07;100243.31;1654163;85;21757;-62
2021/05/20 06:38:45;;;;;;;20.68;13.58;;;;;;;14.10;93.60;100246.40;1648321;85;21143;-63
2021/05/20 06:41:11;;;;;;;41.95;21.35;;;;;;;14.11;93.98;100234.66;1648332;85;21063;-63
2021/05/20 06:43:38;;;;;;;18.73;12.75;;;;;;;14.13;94.05;100236.78;1646772;85;21192;-63
2021/05/20 06:46:06;;;;;;;19.12;11.65;;;;;;;14.14;94.29;100234.47;1647352;85;21150;-63
2021/05/20 06:48:34;;;;;;;37.38;21.65;;;;;;;14.11;93.57;100236.01;1651216;85;21476;-63
2021/05/20 06:51:05;;;;;;;15.80;11.45;;;;;;;14.10;93.95;100229.73;1649387;85;21171;-61
2021/05/20 06:53:35;;;;;;;21.48;12.68;;;;;;;14.10;93.96;100232.42;1618473;87;21150;-62
2021/05/20 06:56:04;;;;;;;21.95;13.62;;;;;;;14.09;94.50;100231.19;1619540;85;21253;-63
2021/05/20 07:01:18;;;;;;;23.12;11.43;;;;;;;14.10;95.09;100224.84;1648054;85;21191;-62
2021/05/20 07:03:44;;;;;;;18.12;10.80;;;;;;;14.11;95.04;100240.05;1646868;85;21127;-62
2021/05/20 07:06:12;;;;;;;21.45;11.15;;;;;;;14.09;94.66;100243.31;1660249;85;21967;-62
2021/05/20 07:08:40;;;;;;;17.32;11.15;;;;;;;14.04;95.04;100240.41;1646859;85;21164;-62
2021/05/20 07:11:08;;;;;;;16.95;10.85;;;;;;;14.01;95.33;100239.22;1646901;85;21104;-64
2021/05/20 07:13:36;;;;;;;17.17;10.70;;;;;;;13.99;96.04;100241.13;1648154;85;21735;-64
2021/05/20 07:16:03;;;;;;;19.05;10.63;;;;;;;13.95;95.84;100247.66;1651326;85;21205;-63
2021/05/20 07:18:33;;;;;;;16.62;10.55;;;;;;;13.92;95.96;100238.41;1645244;85;21507;-63
2021/05/20 07:21:01;;;;;;;18.75;10.55;;;;;;;13.93;96.28;100239.30;1649764;85;21392;-63
2021/05/20 07:23:28;;;;;;;16.77;10.50;;;;;;;13.90;96.40;100240.33;1652100;85;22470;-63
2021/05/20 07:25:55;;;;;;;15.88;10.70;;;;;;;13.89;96.41;100245.33;1647387;85;22407;-63
2021/05/20 07:28:22;;;;;;;14.28;8.85;;;;;;;13.89;96.96;100236.75;1648067;85;21144;-63
2021/05/20 07:30:49;;;;;;;13.70;9.28;;;;;;;13.91;97.05;100239.37;1622261;86;21113;-61
2021/05/20 07:33:16;;;;;;;20.32;10.28;;;;;;;13.89;96.72;100238.59;1645657;85;21179;-62
2021/05/20 07:35:43;;;;;;;13.85;9.15;;;;;;;13.87;97.01;100235.97;1645510;85;21136;-60
2021/05/20 07:38:09;;;;;;;22.20;10.45;;;;;;;13.86;97.60;100235.58;1645950;85;21127;-61
2021/05/20 07:40:40;;;;;;;18.65;10.95;;;;;;;13.83;98.16;100249.73;1646232;85;21203;-61
2021/05/20 07:43:07;;;;;;;20.43;10.95;;;;;;;13.82;98.56;100247.50;1653331;86;22067;-60
2021/05/20 07:45:34;;;;;;;16.73;10.08;;;;;;;13.85;99.00;100249.16;1612404;88;21419;-62
2021/05/20 07:48:01;;;;;;;15.00;10.15;;;;;;;13.85;99.35;100253.20;1623719;86;21139;-63
2021/05/20 07:50:27;;;;;;;24.27;10.75;;;;;;;13.84;100.00;100258.20;1651190;85;21194;-64
2021/05/20 07:52:54;;;;;;;19.30;11.28;;;;;;;13.81;100.00;100257.00;1657382;85;21115;-62
2021/05/20 07:55:21;;;;;;;17.02;9.73;;;;;;;13.80;100.00;100257.49;1655969;84;21165;-64
2021/05/20 07:57:49;;;;;;;19.67;11.15;;;;;;;13.83;100.00;100256.46;1637518;85;21246;-63
2021/05/20 08:03:24;;;;;;;21.00;10.72;;;;;;;13.82;100.00;100246.64;1642456;85;21790;-63
2021/05/20 08:08:38;;;;;;;20.45;10.25;;;;;;;13.69;100.00;100237.02;1644515;85;21619;-62
2021/05/20 08:11:04;;;;;;;20.45;10.35;;;;;;;13.63;100.00;100240.94;1647436;85;21908;-61
2021/05/20 08:13:33;;;;;;;17.95;10.60;;;;;;;13.55;100.00;100243.17;1648509;84;21643;-59
2021/05/20 08:16:00;;;;;;;13.78;9.08;;;;;;;13.51;100.00;100249.69;1667850;84;22293;-61
2021/05/20 08:18:27;;;;;;;23.73;12.88;;;;;;;13.46;100.00;100249.94;1649478;85;22249;-60
2021/05/20 08:20:54;;;;;;;20.37;13.25;;;;;;;13.44;100.00;100265.31;1660595;83;21135;-61
2021/05/20 08:23:22;;;;;;;17.65;11.93;;;;;;;13.42;100.00;100272.11;1649059;85;21184;-61
2021/05/20 08:25:50;;;;;;;19.85;13.35;;;;;;;13.41;100.00;100271.72;1646862;85;21846;-60
2021/05/20 08:28:17;;;;;;;24.20;12.98;;;;;;;13.40;100.00;100263.25;1652052;85;21098;-60
2021/05/20 08:30:44;;;;;;;23.90;12.78;;;;;;;13.40;100.00;100264.59;1646546;84;21125;-62
2021/05/20 08:33:12;;;;;;;21.97;13.53;;;;;;;13.36;100.00;100260.30;1653758;84;21136;-61
2021/05/20 08:35:42;;;;;;;22.52;13.22;;;;;;;13.32;100.00;100254.70;1668810;84;21124;-60
2021/05/20 08:38:12;;;;;;;20.10;12.73;;;;;;;13.28;100.00;100253.14;1667240;84;21106;-61
2021/05/20 08:40:38;;;;;;;20.12;12.75;;;;;;;13.25;100.00;100260.04;1640472;85;21174;-61
2021/05/20 08:43:07;;;;;;;30.50;12.63;;;;;;;13.21;100.00;100244.52;1654321;84;21206;-60
2021/05/20 08:45:39;;;;;;;19.00;12.13;;;;;;;13.18;100.00;100239.30;1656601;84;21614;-60
2021/05/20 08:48:10;;;;;;;23.35;11.75;;;;;;;13.14;100.00;100241.77;1656129;84;21624;-60
2021/05/20 08:50:38;;;;;;;21.75;12.03;;;;;;;13.08;100.00;100241.63;1652978;84;21589;-62
2021/05/20 08:53:04;;;;;;;23.50;13.50;;;;;;;13.00;100.00;100243.86;1645656;85;21758;-61
2021/05/20 08:55:35;;;;;;;20.62;11.75;;;;;;;12.94;100.00;100240.16;1646806;85;21139;-61
2021/05/20 08:58:06;;;;;;;24.23;14.18;;;;;;;12.90;100.00;100236.27;1649724;85;21125;-62
2021/05/20 09:00:32;;;;;;;24.12;14.93;;;;;;;12.88;100.00;100235.48;1651235;85;21150;-64
2021/05/20 09:03:12;;;;;;;23.57;14.85;;;;;;;12.87;100.00;100228.85;1651823;85;21134;-62
2021/05/20 09:05:40;;;;;;;32.03;18.77;;;;;;;12.87;100.00;100213.56;1658723;85;21405;-60
2021/05/20 09:08:15;;;;;;;39.50;20.88;;;;;;;12.90;100.00;100206.67;1648900;85;21218;-62
2021/05/20 09:10:43;;;;;;;42.50;24.18;;;;;;;12.95;100.00;100208.27;1652631;85;21082;-63
2021/05/20 09:13:16;;;;;;;37.67;24.57;;;;;;;12.97;100.00;100213.09;1648409;85;21107;-64
2021/05/20 09:15:52;;;;;;;37.63;25.48;;;;;;;12.98;100.00;100209.45;1645258;85;21168;-63
2021/05/20 09:18:21;;;;;;;44.33;23.85;;;;;;;13.00;100.00;100211.58;1651561;85;21442;-63
2021/05/20 09:20:58;;;;;;;36.65;23.35;;;;;;;13.02;100.00;100202.94;1645733;85;21126;-62
2021/05/20 09:23:29;;;;;;;33.53;20.52;;;;;;;13.04;100.00;100196.99;1650170;85;21132;-63
2021/05/20 09:26:05;;;;;;;46.18;26.57;;;;;;;13.04;100.00;100192.95;1659385;85;21130;-63
2021/05/20 09:28:35;;;;;;;48.00;29.20;;;;;;;13.04;100.00;100190.27;1647832;85;21187;-62
2021/05/20 09:31:04;;;;;;;45.25;24.52;;;;;;;13.01;100.00;100212.81;1658882;83;21165;-62
2021/05/20 09:33:31;;;;;;;42.48;26.10;;;;;;;12.98;100.00;100208.10;1682518;83;21177;-64
2021/05/20 09:35:58;;;;;;;44.40;22.60;;;;;;;12.96;100.00;100215.39;1687536;83;21122;-63
2021/05/20 09:38:26;;;;;;;48.87;27.77;;;;;;;12.93;100.00;100215.52;1679990;85;21139;-61
2021/05/20 09:41:04;;;;;;;27.77;16.67;;;;;;;12.92;100.00;100209.75;1680093;85;21092;-61
2021/05/20 09:43:34;;;;;;;35.88;23.20;;;;;;;12.90;100.00;100216.08;1678322;83;21134;-62
2021/05/20 09:46:15;;;;;;;61.63;41.80;;;;;;;12.85;100.00;100224.03;1682863;82;21013;-61
2021/05/20 09:48:45;;;;;;;48.68;35.68;;;;;;;12.81;100.00;100230.50;1696254;82;21097;-61
2021/05/20 09:51:26;;;;;;;43.25;34.78;;;;;;;12.79;100.00;100240.02;1651501;85;21631;-62
2021/05/20 09:53:53;;;;;;;42.83;28.80;;;;;;;12.79;100.00;100255.27;1685004;83;20971;-63
2021/05/20 09:56:42;;;;;;;29.98;22.15;;;;;;;12.76;100.00;100248.25;1676503;84;21832;-63
2021/05/20 09:59:13;;;;;;;22.30;15.28;;;;;;;12.75;100.00;100231.72;1657956;84;21259;-62
2021/05/20 10:01:40;;;;;;;41.35;32.93;;;;;;;12.75;100.00;100222.30;1671595;83;21184;-61
2021/05/20 10:04:07;;;;;;;46.73;37.90;;;;;;;12.70;100.00;100213.13;1678478;84;21121;-61
2021/05/20 10:06:41;;;;;;;36.33;26.45;;;;;;;12.66;100.00;100202.13;1685480;83;21109;-63
2021/05/20 10:09:13;;;;;;;17.70;12.18;;;;;;;12.63;100.00;100204.11;1656439;85;21798;-63
2021/05/20 10:11:43;;;;;;;22.30;12.43;;;;;;;12.61;100.00;100201.02;1672292;83;20962;-62
2021/05/20 10:14:10;;;;;;;37.88;23.25;;;;;;;12.58;100.00;100197.16;1679518;83;21405;-62
2021/05/20 10:16:39;;;;;;;41.85;28.65;;;;;;;12.56;100.00;100195.48;1679999;83;20931;-62
2021/05/20 10:19:06;;;;;;;34.53;22.07;;;;;;;12.54;100.00;100172.73;1672845;85;21182;-63
2021/05/20 10:21:33;;;;;;;24.87;15.78;;;;;;;12.55;100.00;100180.30;1674747;84;21670;-62
2021/05/20 10:24:38;;;;;;;23.77;15.23;;;;;;;12.56;100.00;100166.78;1678391;84;21184;-61
2021/05/20 10:27:05;;;;;;;31.97;20.15;;;;;;;12.59;100.00;100159.91;1659869;82;21160;-61
2021/05/20 10:29:32;;;;;;;44.83;26.35;;;;;;;12.58;100.00;100154.12;1669643;83;21152;-61
2021/05/20 10:31:58;;;;;;;39.65;23.27;;;;;;;12.61;100.00;100137.83;1660508;84;21113;-61
2021/05/20 10:34:25;;;;;;;30.15;20.10;;;;;;;12.65;100.00;100132.28;1655837;84;21704;-62
2021/05/20 10:37:03;;;;;;;38.83;21.02;;;;;;;12.68;100.00;100118.20;1645926;85;21092;-62
2021/05/20 10:39:29;;;;;;;34.95;24.82;;;;;;;12.73;100.00;100128.72;1646977;86;21882;-61
2021/05/20 10:41:58;;;;;;;31.40;20.37;;;;;;;12.72;100.00;100120.27;1647517;85;21065;-61
2021/05/20 10:44:25;;;;;;;35.28;24.35;;;;;;;12.77;100.00;100126.72;1667594;84;21539;-63
2021/05/20 10:47:02;;;;;;;33.38;23.27;;;;;;;12.78;100.00;100141.44;1646642;85;21719;-62
2021/05/20 10:49:53;;;;;;;37.45;25.12;;;;;;;12.77;100.00;100131.63;1637940;85;21165;-62
2021/05/20 10:52:40;;;;;;;25.85;17.98;;;;;;;12.78;100.00;100127.11;1640617;85;21548;-61
2021/05/20 10:55:09;;;;;;;25.00;17.30;;;;;;;12.75;100.00;100134.39;1649813;85;21556;-61
2021/05/20 10:57:57;;;;;;;30.68;19.87;;;;;;;12.74;100.00;100126.42;1639237;85;21203;-62
2021/05/20 11:00:36;;;;;;;32.35;24.20;;;;;;;12.74;100.00;100142.56;1636470;86;21146;-61
2021/05/20 11:03:04;;;;;;;35.25;23.95;;;;;;;12.79;100.00;100132.41;1640400;85;21534;-61
2021/05/20 11:05:47;;;;;;;31.60;21.30;;;;;;;12.83;100.00;100107.08;1643854;85;21047;-62
2021/05/20 11:08:31;;;;;;;19.67;14.03;;;;;;;12.92;100.00;100100.79;1639674;85;21648;-62
2021/05/20 11:11:00;;;;;;;15.25;9.93;;;;;;;12.99;100.00;100088.75;1635672;85;21143;-60
2021/05/20 11:13:39;;;;;;;20.72;10.25;;;;;;;12.95;100.00;100093.42;1658272;84;21528;-63
2021/05/20 11:16:20;;;;;;;15.13;9.53;;;;;;;12.97;100.00;100102.28;1650821;84;21864;-63
2021/05/20 11:18:49;;;;;;;16.20;10.15;;;;;;;13.03;100.00;100108.66;1657884;83;21151;-63
2021/05/20 11:21:19;;;;;;;16.10;10.93;;;;;;;13.09;100.00;100089.96;1642597;85;21166;-64
2021/05/20 11:23:48;;;;;;;15.68;10.38;;;;;;;13.15;100.00;100090.10;1642728;85;20972;-63
2021/05/20 11:26:19;;;;;;;16.07;10.82;;;;;;;13.20;100.00;100101.96;1626639;86;21611;-62
2021/05/20 11:28:54;;;;;;;16.23;10.10;;;;;;;13.19;100.00;100095.70;1656216;84;21143;-63